Latest Coastal Weather Observations for Pirlangimpi (Garden Point)

IDD60701

Issued at 8:21 pm CST Saturday 22 February 2020 (issued every 10 minutes, with the page automatically refreshed every 10 minutes)

About coastal observations | Map of coastal stations | Coastal observations for NT | Marine services | Other Formats
Station Details ID: 014142 Name: PIRLANGIMPI AIRPORT Lat: -11.40 Lon: 130.42 Height: 18.3 m
Data from the previous 72 hours. | See also: Recent months at Pirlangimpi (Garden Point)
Date/Time
CST
Wind Sea
Height
m
Swell Vis
km
Cloud Weather Temp
°C
Press
hPa
Rain since
9am
mm
Dir  Spd
kts
Gust
kts
Height
m
Period
s
Dir
22/08:00pm W 3 6 - - - - - - - 29.2 1007.4 0.0
22/07:30pm WSW 3 7 - - - - - - - 29.4 1006.9 0.0
22/07:00pm W 3 7 - - - - - - - 29.8 1006.5 0.0
22/06:30pm WSW 4 9 - - - - - - - 30.3 1006.2 0.0
22/06:00pm W 4 8 - - - - - - - 30.7 1006.2 0.0
22/05:30pm WNW 4 11 - - - - - - - 31.4 1006.1 0.0
22/05:00pm W 4 10 - - - - - - - 31.7 1006.1 0.0
22/04:30pm W 4 9 - - - - - - - 32.0 1006.2 0.0
22/04:00pm WNW 5 10 - - - - - - - 32.5 1006.4 0.0
22/03:30pm W 5 9 - - - - - - - 32.4 1006.5 0.0
22/03:00pm W 6 17 - - - - - - - 32.8 1006.7 0.0
22/02:30pm WSW 6 13 - - - - - - - 32.8 1007.2 0.0
22/02:00pm WSW 7 13 - - - - - - - 32.8 1007.6 0.0
22/01:30pm WSW 5 11 - - - - - - - 33.1 1008.0 0.0
22/01:00pm WSW 6 13 - - - - - - - 32.6 1008.5 0.0
22/12:30pm WSW 5 10 - - - - - - - 32.7 1008.9 0.0
22/12:00pm WSW 6 11 - - - - - - - 32.1 1009.1 0.0
22/11:30am W 5 12 - - - - - - - 32.5 1009.2 0.0
22/11:00am WSW 7 12 - - - - - - - 31.9 1009.5 0.0
22/10:30am WSW 6 11 - - - - - - - 31.3 1009.4 0.0
22/10:00am WSW 5 11 - - - - - - - 31.1 1009.4 0.0
22/09:30am WSW 5 11 - - - - - - - 30.3 1009.3 0.0
22/09:00am WSW 5 9 - - - - - - - 29.8 1009.3 19.2
22/08:30am W 3 5 - - - - - - - 29.7 1008.8 19.2
22/08:00am WSW 2 4 - - - - - - - 28.6 1008.6 19.2
22/07:30am SW 3 6 - - - - - - - 27.9 1008.2 19.2
22/07:00am WSW 3 5 - - - - - - - 27.5 1008.0 19.2
22/06:30am WSW 3 6 - - - - - - - 27.6 1008.0 19.2
22/06:00am WSW 3 7 - - - - - - - 27.5 1007.8 19.2
22/05:30am W 3 7 - - - - - - - 27.1 1007.9 19.2
22/05:00am WSW 2 5 - - - - - - - 26.8 1007.9 19.2
22/04:30am SW 1 4 - - - - - - - 26.4 1007.8 19.2
22/04:00am WNW 1 3 - - - - - - - 25.7 1007.8 19.2
22/03:30am NW 1 2 - - - - - - - 25.4 1007.9 19.2
22/03:00am WNW 2 5 - - - - - - - 25.2 1008.3 19.2
22/02:30am WNW 2 3 - - - - - - - 25.0 1008.7 19.2
22/02:00am NW 3 5 - - - - - - - 24.9 1009.1 19.2
22/01:30am WSW 1 4 - - - - - - - 24.1 1009.4 18.8
22/01:00am NNE 4 7 - - - - - - - 23.9 1010.1 18.8
22/12:30am E 12 19 - - - - - - - 24.1 1011.2 8.6
22/12:00am ENE 4 5 - - - - - - - 27.6 1011.0 2.4
 
Date/Time
CST
Wind Sea
Height
m
Swell Vis
km
Cloud Weather Temp
°C
Press
hPa
Rain since
9am
mm
Dir  Spd
kts
Gust
kts
Height
m
Period
s
Dir
21/11:30pm E 3 5 - - - - - - - 28.1 1011.1 2.4
21/11:00pm W 2 5 - - - - - - - 28.2 1010.2 2.4
21/10:30pm WNW 1 3 - - - - - - - 28.2 1010.1 2.4
21/10:00pm W 1 3 - - - - - - - 28.4 1010.0 2.4
21/09:30pm WNW 2 5 - - - - - - - 28.4 1009.6 2.4
21/09:00pm W 2 6 - - - - - - - 28.2 1009.0 2.4
21/08:30pm W 1 3 - - - - - - - 28.0 1009.0 2.4
21/08:00pm W 2 4 - - - - - - - 28.0 1009.0 2.4
21/07:30pm CALM 0 0 - - - - - - - 27.5 1008.5 2.4
21/07:00pm CALM 0 1 - - - - - - - 27.6 1008.0 2.4
21/06:30pm CALM 0 0 - - - - - - - 28.4 1007.8 2.4
21/06:00pm SW 2 4 - - - - - - - 28.9 1007.3 2.4
21/05:30pm SSW 6 11 - - - - - - - 29.3 1006.6 2.4
21/05:00pm SSW 8 13 - - - - - - - 29.5 1006.5 2.4
21/04:30pm SE 5 17 - - - - - - - 28.0 1006.6 2.4
21/04:00pm SSW 8 13 - - - - - - - 31.7 1006.8 0.0
21/03:30pm SSW 6 11 - - - - - - - 31.8 1006.9 0.0
21/03:00pm SSW 7 10 - - - - - - - 32.1 1007.2 0.0
21/02:30pm S 6 9 - - - - - - - 31.7 1007.3 0.0
21/02:00pm SSW 8 11 - - - - - - - 32.0 1007.6 0.0
21/01:30pm SSW 9 13 - - - - - - - 32.6 1008.0 0.0
21/01:00pm SSW 5 8 - - - - - - - 32.8 1008.2 0.0
21/12:30pm SSW 4 8 - - - - - - - 31.9 1008.5 0.0
21/12:00pm S 6 10 - - - - - - - 31.1 1008.7 0.0
21/11:30am SSW 6 9 - - - - - - - 30.8 1008.9 0.0
21/11:00am S 4 6 - - - - - - - 30.0 1008.9 0.0
21/10:30am SSW 4 7 - - - - - - - 29.2 1009.0 0.0
21/10:00am SSW 3 5 - - - - - - - 28.1 1008.9 0.0
21/09:30am SSW 3 5 - - - - - - - 27.3 1008.8 0.0
21/09:00am SSW 3 4 - - - - - - - 26.8 1008.4 26.8
21/08:30am WNW 1 3 - - - - - - - 26.3 1007.9 26.8
21/08:00am WNW 2 4 - - - - - - - 25.6 1007.6 26.8
21/07:30am NW 1 4 - - - - - - - 25.1 1007.3 26.8
21/07:00am N 1 3 - - - - - - - 24.6 1007.0 26.8
21/06:30am NNW 3 5 - - - - - - - 24.2 1007.2 26.6
21/06:00am N 2 4 - - - - - - - 24.1 1007.5 26.6
21/05:30am N 2 3 - - - - - - - 24.0 1007.7 26.6
21/05:00am ENE 3 5 - - - - - - - 24.2 1007.7 26.6
21/04:30am ENE 4 5 - - - - - - - 24.1 1007.6 26.4
21/04:00am ENE 4 5 - - - - - - - 24.3 1007.9 26.2
21/03:30am ESE 3 5 - - - - - - - 24.4 1008.3 25.8
21/03:00am ENE 4 5 - - - - - - Rain 24.4 1008.3 25.0
21/02:30am E 2 5 - - - - - - - 24.3 1008.6 23.6
21/02:00am ENE 4 6 - - - - - - - 24.2 1009.0 20.6
21/01:30am E 2 4 - - - - - - - 24.5 1009.2 17.2
21/01:00am CALM 0 0 - - - - - - - 24.4 1009.2 14.8
21/12:30am NNW 3 5 - - - - - - - 24.5 1009.5 13.2
21/12:00am SSW 2 3 - - - - - - Rain 24.8 1010.1 12.4
 
Date/Time
CST
Wind Sea
Height
m
Swell Vis
km
Cloud Weather Temp
°C
Press
hPa
Rain since
9am
mm
Dir  Spd
kts
Gust
kts
Height
m
Period
s
Dir
20/11:30pm SSW 7 10 - - - - - - - 24.9 1011.0 11.6
20/11:00pm ENE 2 2 - - - - - - - 25.8 1010.7 9.0
20/10:30pm W 2 5 - - - - - - - 26.1 1010.0 7.8
20/10:00pm NNW 1 2 - - - - - - - 26.2 1010.2 5.2
20/09:30pm CALM 0 0 - - - - - - - 26.6 1010.1 3.4
20/09:00pm SW 4 6 - - - - - - Rain 27.1 1009.2 1.2
20/08:30pm WNW 3 6 - - - - - - - 27.2 1008.4 1.0
20/08:00pm WNW 3 7 - - - - - - - 27.0 1007.8 1.0
20/07:30pm NW 7 14 - - - - - - - 28.4 1007.2 0.2
20/07:00pm NW 6 12 - - - - - - - 28.5 1006.8 0.2
20/06:30pm NW 5 11 - - - - - - - 28.6 1006.3 0.2
20/06:00pm NW 5 9 - - - - - - - 29.0 1005.5 0.2
20/05:30pm NW 5 12 - - - - - - - 29.8 1005.1 0.2
20/05:00pm NW 6 11 - - - - - - - 29.7 1005.4 0.2
20/04:30pm WNW 5 12 - - - - - - - 30.7 1005.6 0.2
20/04:00pm NW 5 11 - - - - - - - 31.1 1006.1 0.2
20/03:30pm WSW 6 10 - - - - - - - 31.1 1006.5 0.2
20/03:00pm WSW 6 13 - - - - - - - 31.6 1006.9 0.2
20/02:30pm SW 5 11 - - - - - - - 32.5 1006.8 0.2
20/02:00pm SW 6 13 - - - - - - - 33.1 1007.0 0.2
20/01:30pm WSW 5 9 - - - - - - - 31.4 1007.4 0.2
20/01:00pm SSW 5 8 - - - - - - - 32.1 1007.7 0.2
20/12:30pm WSW 4 7 - - - - - - - 31.5 1007.8 0.2
20/12:00pm WSW 3 8 - - - - - - - 31.6 1007.6 0.2
20/11:30am SW 6 10 - - - - - - - 31.0 1007.5 0.2
20/11:00am WSW 4 7 - - - - - - - 30.0 1008.1 0.2
20/10:30am WSW 2 5 - - - - - - - 28.6 1008.4 0.2
20/10:00am W 3 5 - - - - - - - 26.7 1009.0 0.0
20/09:30am W 2 3 - - - - - - - 25.8 1008.5 0.0
20/09:00am NNW 1 1 - - - - - - - 25.3 1008.2 14.0
20/08:30am W 1 3 - - - - - - - 25.0 1008.1 14.0
20/08:00am W 2 5 - - - - - - - 24.4 1008.1 14.0
20/07:30am SW 1 5 - - - - - - - 24.0 1008.2 14.0
20/07:00am CALM 0 0 - - - - - - - 23.6 1008.2 14.0
20/06:30am S 2 3 - - - - - - - 23.5 1008.3 13.8
20/06:00am ESE 3 5 - - - - - - Recent precip. 23.0 1008.4 13.8
20/05:30am ESE 4 6 - - - - - - - 22.8 1008.4 13.6
20/05:00am ESE 7 13 - - - - - - - 22.9 1008.5 6.0
20/04:30am SE 14 24 - - - - - - - 23.8 1007.4 0.2
20/04:26am SSE 16 27 - - - - - - - 24.3 1007.3 0.0
20/04:22am SSE 17 27 - - - - - - - 24.4 1007.1 0.0
20/04:14am SW 7 26 - - - - - - - 26.0 1006.7 0.0
20/04:00am CALM 0 0 - - - - - - - 28.3 1006.6 0.0
20/03:30am WNW 2 5 - - - - - - - 28.4 1006.9 0.0
20/03:00am NW 4 7 - - - - - - - 28.4 1006.9 0.0
20/02:30am NNW 4 8 - - - - - - - 28.6 1007.1 0.0
20/02:00am NW 3 5 - - - - - - - 28.7 1007.0 0.0
20/01:30am NW 3 5 - - - - - - - 28.6 1007.2 0.0
20/01:00am NW 2 4 - - - - - - - 28.3 1007.7 0.0
20/12:30am WNW 4 7 - - - - - - - 28.6 1007.9 0.0
20/12:00am NW 4 8 - - - - - - - 28.9 1008.3 0.0
 
Date/Time
CST
Wind Sea
Height
m
Swell Vis
km
Cloud Weather Temp
°C
Press
hPa
Rain since
9am
mm
Dir  Spd
kts
Gust
kts
Height
m
Period
s
Dir
19/11:30pm NW 3 6 - - - - - - - 28.9 1008.7 0.0
19/11:00pm WNW 3 5 - - - - - - - 28.8 1008.4 0.0
19/10:30pm NNW 3 7 - - - - - - - 28.6 1008.2 0.0
19/10:00pm NW 4 9 - - - - - - - 29.2 1008.0 0.0
19/09:30pm NNW 2 9 - - - - - - - 28.2 1007.6 0.0
19/09:00pm N 3 7 - - - - - - - 28.0 1007.2 0.0
19/08:30pm NW 1 5 - - - - - - - 29.8 1006.9 0.0

Other formats

Comma delimited format used in spreadsheet applications
http://www.bom.gov.au/fwo/IDD60701/IDD60701.94119.axf

JavaScript Object Notation format (JSON) in row-major order
http://www.bom.gov.au/fwo/IDD60701/IDD60701.94119.json

Data quality

Most of these data are generated automatically and are frequently updated. Quality checks on data are not normally performed. It is possible for incorrect values to appear. Refer to information at About Latest Weather Observations and please check the disclaimer before using these data.